<?xml version="1.0" encoding="UTF-8" standalone="no" ?>
<gpx xmlns="http://www.topografix.com/GPX/1/1" xmlns:xsi="http://www.w3.org/2001/XMLSchema-instance" xsi:schemaLocation="http://www.topografix.com/GPX/1/1 http://www.topografix.com/GPX/1/1/gpx.xsd" version="1.1" creator="VisuGPX - https://www.visugpx.com">
  <metadata>
    <name>sortie au départ de Oingt</name>
    <desc><![CDATA[Sortie du 26 juillet du Club VTT de Lozanne les Derailleurs]]></desc>
  </metadata>
  <trk>
    <name><![CDATA[26-JUI-09-S2-S1-MNT]]></name>
    <trkseg>
      <trkpt lat="45.9489" lon="4.58347">
        <ele>526.791504</ele>
        <time>2009-07-26T08:17:56Z</time>
      </trkpt>
      <trkpt lat="45.94905" lon="4.5839">
        <ele>526.443726</ele>
        <time>2009-07-26T08:33:13Z</time>
      </trkpt>
      <trkpt lat="45.94963" lon="4.584">
        <ele>529.263245</ele>
        <time>2009-07-26T08:33:38Z</time>
      </trkpt>
      <trkpt lat="45.95105" lon="4.58473">
        <ele>540.992188</ele>
        <time>2009-07-26T08:34:43Z</time>
      </trkpt>
      <trkpt lat="45.95173" lon="4.58555">
        <ele>546.176453</ele>
        <time>2009-07-26T08:35:15Z</time>
      </trkpt>
      <trkpt lat="45.9536" lon="4.58917">
        <ele>558.040283</ele>
        <time>2009-07-26T08:36:51Z</time>
      </trkpt>
      <trkpt lat="45.95493" lon="4.59033">
        <ele>576.568909</ele>
        <time>2009-07-26T08:37:53Z</time>
      </trkpt>
      <trkpt lat="45.95579" lon="4.59055">
        <ele>580.165466</ele>
        <time>2009-07-26T08:38:27Z</time>
      </trkpt>
      <trkpt lat="45.95671" lon="4.5904">
        <ele>584.792236</ele>
        <time>2009-07-26T08:39:04Z</time>
      </trkpt>
      <trkpt lat="45.95884" lon="4.58958">
        <ele>589.755432</ele>
        <time>2009-07-26T08:40:18Z</time>
      </trkpt>
      <trkpt lat="45.95991" lon="4.589">
        <ele>602.986633</ele>
        <time>2009-07-26T08:41:09Z</time>
      </trkpt>
      <trkpt lat="45.96143" lon="4.58958">
        <ele>610.806824</ele>
        <time>2009-07-26T08:41:59Z</time>
      </trkpt>
      <trkpt lat="45.96208" lon="4.58943">
        <ele>611.447571</ele>
        <time>2009-07-26T08:42:18Z</time>
      </trkpt>
      <trkpt lat="45.96356" lon="4.58877">
        <ele>611.765381</ele>
        <time>2009-07-26T08:42:54Z</time>
      </trkpt>
      <trkpt lat="45.96538" lon="4.58874">
        <ele>608.180664</ele>
        <time>2009-07-26T08:43:30Z</time>
      </trkpt>
      <trkpt lat="45.96678" lon="4.58849">
        <ele>598.915283</ele>
        <time>2009-07-26T08:43:54Z</time>
      </trkpt>
      <trkpt lat="45.96733" lon="4.58814">
        <ele>593.187195</ele>
        <time>2009-07-26T08:44:02Z</time>
      </trkpt>
      <trkpt lat="45.96832" lon="4.58759">
        <ele>588.901184</ele>
        <time>2009-07-26T08:44:16Z</time>
      </trkpt>
      <trkpt lat="45.96967" lon="4.5866">
        <ele>593.171509</ele>
        <time>2009-07-26T08:44:56Z</time>
      </trkpt>
      <trkpt lat="45.96993" lon="4.58626">
        <ele>593.997314</ele>
        <time>2009-07-26T08:45:32Z</time>
      </trkpt>
      <trkpt lat="45.971" lon="4.5848">
        <ele>599.163757</ele>
        <time>2009-07-26T08:46:18Z</time>
      </trkpt>
      <trkpt lat="45.97184" lon="4.58426">
        <ele>600.441223</ele>
        <time>2009-07-26T08:46:47Z</time>
      </trkpt>
      <trkpt lat="45.97381" lon="4.58357">
        <ele>583.871704</ele>
        <time>2009-07-26T08:47:30Z</time>
      </trkpt>
      <trkpt lat="45.97557" lon="4.584">
        <ele>572.950562</ele>
        <time>2009-07-26T08:47:53Z</time>
      </trkpt>
      <trkpt lat="45.97658" lon="4.58392">
        <ele>563.502991</ele>
        <time>2009-07-26T08:48:07Z</time>
      </trkpt>
      <trkpt lat="45.97703" lon="4.5839">
        <ele>559.358459</ele>
        <time>2009-07-26T08:48:13Z</time>
      </trkpt>
      <trkpt lat="45.9777" lon="4.58334">
        <ele>554.63855</ele>
        <time>2009-07-26T08:48:25Z</time>
      </trkpt>
      <trkpt lat="45.97808" lon="4.5834">
        <ele>554.174988</ele>
        <time>2009-07-26T08:48:34Z</time>
      </trkpt>
      <trkpt lat="45.97808" lon="4.58357">
        <ele>554.182678</ele>
        <time>2009-07-26T08:48:47Z</time>
      </trkpt>
      <trkpt lat="45.97851" lon="4.58295">
        <ele>554.598633</ele>
        <time>2009-07-26T08:49:44Z</time>
      </trkpt>
      <trkpt lat="45.97905" lon="4.58254">
        <ele>557.073303</ele>
        <time>2009-07-26T08:50:02Z</time>
      </trkpt>
      <trkpt lat="45.98034" lon="4.58231">
        <ele>568.112976</ele>
        <time>2009-07-26T08:50:50Z</time>
      </trkpt>
      <trkpt lat="45.98027" lon="4.58214">
        <ele>568.849915</ele>
        <time>2009-07-26T08:50:57Z</time>
      </trkpt>
      <trkpt lat="45.98017" lon="4.58214">
        <ele>568.041504</ele>
        <time>2009-07-26T08:51:02Z</time>
      </trkpt>
      <trkpt lat="45.98019" lon="4.58199">
        <ele>569.192688</ele>
        <time>2009-07-26T08:51:10Z</time>
      </trkpt>
      <trkpt lat="45.98042" lon="4.58188">
        <ele>571.891052</ele>
        <time>2009-07-26T08:51:22Z</time>
      </trkpt>
      <trkpt lat="45.9813" lon="4.58128">
        <ele>584.020935</ele>
        <time>2009-07-26T08:52:11Z</time>
      </trkpt>
      <trkpt lat="45.98231" lon="4.58085">
        <ele>598.157898</ele>
        <time>2009-07-26T08:57:13Z</time>
      </trkpt>
      <trkpt lat="45.983" lon="4.5802">
        <ele>607.514038</ele>
        <time>2009-07-26T08:58:03Z</time>
      </trkpt>
      <trkpt lat="45.98341" lon="4.57907">
        <ele>616.282288</ele>
        <time>2009-07-26T08:58:55Z</time>
      </trkpt>
      <trkpt lat="45.98394" lon="4.57806">
        <ele>627.210938</ele>
        <time>2009-07-26T08:59:43Z</time>
      </trkpt>
      <trkpt lat="45.98495" lon="4.57626">
        <ele>646.739746</ele>
        <time>2009-07-26T09:01:34Z</time>
      </trkpt>
      <trkpt lat="45.98501" lon="4.57589">
        <ele>648.079163</ele>
        <time>2009-07-26T09:01:57Z</time>
      </trkpt>
      <trkpt lat="45.98527" lon="4.57505">
        <ele>641.467346</ele>
        <time>2009-07-26T09:04:41Z</time>
      </trkpt>
      <trkpt lat="45.98538" lon="4.57372">
        <ele>646.680237</ele>
        <time>2009-07-26T09:05:07Z</time>
      </trkpt>
      <trkpt lat="45.98583" lon="4.57257">
        <ele>661.820801</ele>
        <time>2009-07-26T09:05:48Z</time>
      </trkpt>
      <trkpt lat="45.98742" lon="4.57239">
        <ele>663.759705</ele>
        <time>2009-07-26T09:07:20Z</time>
      </trkpt>
      <trkpt lat="45.98705" lon="4.57111">
        <ele>677.155151</ele>
        <time>2009-07-26T09:10:49Z</time>
      </trkpt>
      <trkpt lat="45.98604" lon="4.57235">
        <ele>667.344543</ele>
        <time>2009-07-26T09:11:02Z</time>
      </trkpt>
      <trkpt lat="45.98684" lon="4.56978">
        <ele>676.219482</ele>
        <time>2009-07-26T09:11:09Z</time>
      </trkpt>
      <trkpt lat="45.98673" lon="4.56881">
        <ele>681.723022</ele>
        <time>2009-07-26T09:11:27Z</time>
      </trkpt>
      <trkpt lat="45.98712" lon="4.56791">
        <ele>686.858398</ele>
        <time>2009-07-26T09:11:51Z</time>
      </trkpt>
      <trkpt lat="45.98731" lon="4.56733">
        <ele>686.486145</ele>
        <time>2009-07-26T09:12:12Z</time>
      </trkpt>
      <trkpt lat="45.98755" lon="4.56684">
        <ele>688.777039</ele>
        <time>2009-07-26T09:12:28Z</time>
      </trkpt>
      <trkpt lat="45.98834" lon="4.56649">
        <ele>690.058472</ele>
        <time>2009-07-26T09:12:41Z</time>
      </trkpt>
      <trkpt lat="45.98858" lon="4.56598">
        <ele>704.002319</ele>
        <time>2009-07-26T09:13:04Z</time>
      </trkpt>
      <trkpt lat="45.98883" lon="4.56587">
        <ele>707.020691</ele>
        <time>2009-07-26T09:13:40Z</time>
      </trkpt>
      <trkpt lat="45.98883" lon="4.5654">
        <ele>710.317078</ele>
        <time>2009-07-26T09:15:59Z</time>
      </trkpt>
      <trkpt lat="45.98963" lon="4.56463">
        <ele>717.109619</ele>
        <time>2009-07-26T09:20:33Z</time>
      </trkpt>
      <trkpt lat="45.98993" lon="4.56452">
        <ele>721.805908</ele>
        <time>2009-07-26T09:20:57Z</time>
      </trkpt>
      <trkpt lat="45.9907" lon="4.5636">
        <ele>727.63562</ele>
        <time>2009-07-26T09:21:59Z</time>
      </trkpt>
      <trkpt lat="45.99169" lon="4.56319">
        <ele>744.439392</ele>
        <time>2009-07-26T09:23:02Z</time>
      </trkpt>
      <trkpt lat="45.99242" lon="4.56244">
        <ele>747.579956</ele>
        <time>2009-07-26T09:23:59Z</time>
      </trkpt>
      <trkpt lat="45.9937" lon="4.56203">
        <ele>747.728516</ele>
        <time>2009-07-26T09:24:56Z</time>
      </trkpt>
      <trkpt lat="45.99506" lon="4.56218">
        <ele>751.899536</ele>
        <time>2009-07-26T09:25:46Z</time>
      </trkpt>
      <trkpt lat="45.99519" lon="4.56197">
        <ele>748.701233</ele>
        <time>2009-07-26T09:27:18Z</time>
      </trkpt>
      <trkpt lat="45.9963" lon="4.56115">
        <ele>768.818054</ele>
        <time>2009-07-26T09:29:19Z</time>
      </trkpt>
      <trkpt lat="45.99673" lon="4.56057">
        <ele>772.226929</ele>
        <time>2009-07-26T09:29:53Z</time>
      </trkpt>
      <trkpt lat="45.9971" lon="4.56055">
        <ele>775.814697</ele>
        <time>2009-07-26T09:30:20Z</time>
      </trkpt>
      <trkpt lat="45.9972" lon="4.56064">
        <ele>775.908142</ele>
        <time>2009-07-26T09:30:58Z</time>
      </trkpt>
      <trkpt lat="45.9972" lon="4.56066">
        <ele>776.009766</ele>
        <time>2009-07-26T09:32:02Z</time>
      </trkpt>
      <trkpt lat="45.99772" lon="4.56094">
        <ele>770.110535</ele>
        <time>2009-07-26T09:32:21Z</time>
      </trkpt>
      <trkpt lat="45.99793" lon="4.56081">
        <ele>765.761475</ele>
        <time>2009-07-26T09:32:28Z</time>
      </trkpt>
      <trkpt lat="45.99834" lon="4.56048">
        <ele>757.677063</ele>
        <time>2009-07-26T09:32:38Z</time>
      </trkpt>
      <trkpt lat="45.99883" lon="4.56033">
        <ele>748.214844</ele>
        <time>2009-07-26T09:32:57Z</time>
      </trkpt>
      <trkpt lat="45.99958" lon="4.55935">
        <ele>733.032837</ele>
        <time>2009-07-26T09:33:30Z</time>
      </trkpt>
      <trkpt lat="45.99999" lon="4.55883">
        <ele>721.080872</ele>
        <time>2009-07-26T09:33:51Z</time>
      </trkpt>
      <trkpt lat="46.00027" lon="4.55894">
        <ele>714.248291</ele>
        <time>2009-07-26T09:35:39Z</time>
      </trkpt>
      <trkpt lat="46.00038" lon="4.55903">
        <ele>710.694702</ele>
        <time>2009-07-26T09:35:53Z</time>
      </trkpt>
      <trkpt lat="46.00066" lon="4.55911">
        <ele>703.958008</ele>
        <time>2009-07-26T09:35:57Z</time>
      </trkpt>
      <trkpt lat="46.00124" lon="4.55926">
        <ele>699.13623</ele>
        <time>2009-07-26T09:36:05Z</time>
      </trkpt>
      <trkpt lat="46.00255" lon="4.55877">
        <ele>704.653809</ele>
        <time>2009-07-26T09:36:25Z</time>
      </trkpt>
      <trkpt lat="46.00349" lon="4.55995">
        <ele>666.464661</ele>
        <time>2009-07-26T09:36:38Z</time>
      </trkpt>
      <trkpt lat="46.00355" lon="4.55991">
        <ele>667.381775</ele>
        <time>2009-07-26T09:36:54Z</time>
      </trkpt>
      <trkpt lat="46.00366" lon="4.55988">
        <ele>667.576965</ele>
        <time>2009-07-26T09:37:21Z</time>
      </trkpt>
      <trkpt lat="46.00373" lon="4.55993">
        <ele>666.419678</ele>
        <time>2009-07-26T09:37:35Z</time>
      </trkpt>
      <trkpt lat="46.00377" lon="4.55993">
        <ele>666.305603</ele>
        <time>2009-07-26T09:37:36Z</time>
      </trkpt>
      <trkpt lat="46.00415" lon="4.55988">
        <ele>662.696594</ele>
        <time>2009-07-26T09:37:41Z</time>
      </trkpt>
      <trkpt lat="46.00669" lon="4.5581">
        <ele>623.600891</ele>
        <time>2009-07-26T09:37:57Z</time>
      </trkpt>
      <trkpt lat="46.00675" lon="4.55787">
        <ele>628.881409</ele>
        <time>2009-07-26T09:38:00Z</time>
      </trkpt>
      <trkpt lat="46.0066" lon="4.55774">
        <ele>629.308167</ele>
        <time>2009-07-26T09:38:03Z</time>
      </trkpt>
      <trkpt lat="46.00712" lon="4.5569">
        <ele>661.453064</ele>
        <time>2009-07-26T09:38:12Z</time>
      </trkpt>
      <trkpt lat="46.00743" lon="4.55659">
        <ele>683.488464</ele>
        <time>2009-07-26T09:38:31Z</time>
      </trkpt>
      <trkpt lat="46.0081" lon="4.5583">
        <ele>667.306396</ele>
        <time>2009-07-26T09:38:43Z</time>
      </trkpt>
      <trkpt lat="46.00855" lon="4.56055">
        <ele>635.771362</ele>
        <time>2009-07-26T09:38:44Z</time>
      </trkpt>
      <trkpt lat="46.00812" lon="4.56197">
        <ele>589.951538</ele>
        <time>2009-07-26T09:38:49Z</time>
      </trkpt>
      <trkpt lat="46.0086" lon="4.56308">
        <ele>573.737183</ele>
        <time>2009-07-26T09:38:58Z</time>
      </trkpt>
      <trkpt lat="46.00898" lon="4.56327">
        <ele>569.697266</ele>
        <time>2009-07-26T09:39:03Z</time>
      </trkpt>
      <trkpt lat="46.0093" lon="4.56319">
        <ele>574.136963</ele>
        <time>2009-07-26T09:39:38Z</time>
      </trkpt>
      <trkpt lat="46.00937" lon="4.56308">
        <ele>577.801758</ele>
        <time>2009-07-26T09:46:23Z</time>
      </trkpt>
      <trkpt lat="46.01014" lon="4.56246">
        <ele>594.728699</ele>
        <time>2009-07-26T09:47:41Z</time>
      </trkpt>
      <trkpt lat="46.01081" lon="4.56209">
        <ele>600.623962</ele>
        <time>2009-07-26T09:48:23Z</time>
      </trkpt>
      <trkpt lat="46.01214" lon="4.56162">
        <ele>600.072205</ele>
        <time>2009-07-26T09:49:09Z</time>
      </trkpt>
      <trkpt lat="46.01287" lon="4.56096">
        <ele>604.733032</ele>
        <time>2009-07-26T09:49:33Z</time>
      </trkpt>
      <trkpt lat="46.01306" lon="4.56111">
        <ele>608.14032</ele>
        <time>2009-07-26T09:49:45Z</time>
      </trkpt>
      <trkpt lat="46.01342" lon="4.5619">
        <ele>606.97998</ele>
        <time>2009-07-26T09:50:14Z</time>
      </trkpt>
      <trkpt lat="46.01388" lon="4.56106">
        <ele>610.842834</ele>
        <time>2009-07-26T09:50:31Z</time>
      </trkpt>
      <trkpt lat="46.0145" lon="4.56038">
        <ele>610.232483</ele>
        <time>2009-07-26T09:50:45Z</time>
      </trkpt>
      <trkpt lat="46.01583" lon="4.55888">
        <ele>611.823059</ele>
        <time>2009-07-26T09:51:21Z</time>
      </trkpt>
      <trkpt lat="46.0163" lon="4.55692">
        <ele>622.432434</ele>
        <time>2009-07-26T09:52:15Z</time>
      </trkpt>
      <trkpt lat="46.01705" lon="4.55654">
        <ele>637.582642</ele>
        <time>2009-07-26T09:52:50Z</time>
      </trkpt>
      <trkpt lat="46.01774" lon="4.55617">
        <ele>645.659302</ele>
        <time>2009-07-26T09:53:47Z</time>
      </trkpt>
      <trkpt lat="46.01784" lon="4.55639">
        <ele>637.742004</ele>
        <time>2009-07-26T09:55:36Z</time>
      </trkpt>
      <trkpt lat="46.0184" lon="4.55572">
        <ele>648.360901</ele>
        <time>2009-07-26T09:56:18Z</time>
      </trkpt>
      <trkpt lat="46.01866" lon="4.55501">
        <ele>657.904114</ele>
        <time>2009-07-26T09:56:46Z</time>
      </trkpt>
      <trkpt lat="46.01883" lon="4.5545">
        <ele>663.821716</ele>
        <time>2009-07-26T09:57:07Z</time>
      </trkpt>
      <trkpt lat="46.01887" lon="4.55435">
        <ele>665.605225</ele>
        <time>2009-07-26T09:57:14Z</time>
      </trkpt>
      <trkpt lat="46.01956" lon="4.55428">
        <ele>661.89502</ele>
        <time>2009-07-26T09:57:49Z</time>
      </trkpt>
      <trkpt lat="46.02061" lon="4.55463">
        <ele>679.653931</ele>
        <time>2009-07-26T09:59:12Z</time>
      </trkpt>
      <trkpt lat="46.02091" lon="4.55486">
        <ele>681.616699</ele>
        <time>2009-07-26T09:59:35Z</time>
      </trkpt>
      <trkpt lat="46.02121" lon="4.55544">
        <ele>685.308777</ele>
        <time>2009-07-26T09:59:57Z</time>
      </trkpt>
      <trkpt lat="46.02156" lon="4.55626">
        <ele>687.970947</ele>
        <time>2009-07-26T10:02:24Z</time>
      </trkpt>
      <trkpt lat="46.02177" lon="4.55643">
        <ele>689.60553</ele>
        <time>2009-07-26T10:02:36Z</time>
      </trkpt>
      <trkpt lat="46.02368" lon="4.55688">
        <ele>705.175354</ele>
        <time>2009-07-26T10:04:38Z</time>
      </trkpt>
      <trkpt lat="46.02338" lon="4.5563">
        <ele>708.366882</ele>
        <time>2009-07-26T10:07:35Z</time>
      </trkpt>
      <trkpt lat="46.02297" lon="4.55564">
        <ele>717.157043</ele>
        <time>2009-07-26T10:08:14Z</time>
      </trkpt>
      <trkpt lat="46.02233" lon="4.55478">
        <ele>727.67749</ele>
        <time>2009-07-26T10:09:20Z</time>
      </trkpt>
      <trkpt lat="46.02162" lon="4.55347">
        <ele>737.458801</ele>
        <time>2009-07-26T10:10:52Z</time>
      </trkpt>
      <trkpt lat="46.02087" lon="4.55255">
        <ele>743.046936</ele>
        <time>2009-07-26T10:12:04Z</time>
      </trkpt>
      <trkpt lat="46.02072" lon="4.55212">
        <ele>749.602966</ele>
        <time>2009-07-26T10:13:01Z</time>
      </trkpt>
      <trkpt lat="46.01952" lon="4.55139">
        <ele>754.565674</ele>
        <time>2009-07-26T10:15:14Z</time>
      </trkpt>
      <trkpt lat="46.01737" lon="4.55066">
        <ele>800.342957</ele>
        <time>2009-07-26T10:17:55Z</time>
      </trkpt>
      <trkpt lat="46.01615" lon="4.55113">
        <ele>801.952454</ele>
        <time>2009-07-26T10:19:01Z</time>
      </trkpt>
      <trkpt lat="46.01583" lon="4.55115">
        <ele>802.258118</ele>
        <time>2009-07-26T10:19:17Z</time>
      </trkpt>
      <trkpt lat="46.01566" lon="4.55128">
        <ele>800.292297</ele>
        <time>2009-07-26T10:19:28Z</time>
      </trkpt>
      <trkpt lat="46.01538" lon="4.55119">
        <ele>802.375122</ele>
        <time>2009-07-26T10:19:45Z</time>
      </trkpt>
      <trkpt lat="46.01643" lon="4.55113">
        <ele>801.663818</ele>
        <time>2009-07-26T10:20:59Z</time>
      </trkpt>
      <trkpt lat="46.01568" lon="4.55128">
        <ele>800.266846</ele>
        <time>2009-07-26T10:22:12Z</time>
      </trkpt>
      <trkpt lat="46.01548" lon="4.55115">
        <ele>803.021606</ele>
        <time>2009-07-26T10:22:57Z</time>
      </trkpt>
      <trkpt lat="46.01467" lon="4.551">
        <ele>815.958618</ele>
        <time>2009-07-26T10:27:49Z</time>
      </trkpt>
      <trkpt lat="46.01437" lon="4.55064">
        <ele>823.571167</ele>
        <time>2009-07-26T10:28:14Z</time>
      </trkpt>
      <trkpt lat="46.01351" lon="4.55115">
        <ele>835.039673</ele>
        <time>2009-07-26T10:29:20Z</time>
      </trkpt>
      <trkpt lat="46.01173" lon="4.5513">
        <ele>841.059387</ele>
        <time>2009-07-26T10:31:19Z</time>
      </trkpt>
      <trkpt lat="46.01038" lon="4.55111">
        <ele>823.204224</ele>
        <time>2009-07-26T10:32:08Z</time>
      </trkpt>
      <trkpt lat="46.00965" lon="4.55094">
        <ele>837.363953</ele>
        <time>2009-07-26T10:34:10Z</time>
      </trkpt>
      <trkpt lat="46.00958" lon="4.55089">
        <ele>839.856689</ele>
        <time>2009-07-26T10:34:30Z</time>
      </trkpt>
      <trkpt lat="46.00939" lon="4.55087">
        <ele>844.273865</ele>
        <time>2009-07-26T10:35:11Z</time>
      </trkpt>
      <trkpt lat="46.00913" lon="4.55079">
        <ele>850.365234</ele>
        <time>2009-07-26T10:35:28Z</time>
      </trkpt>
      <trkpt lat="46.00862" lon="4.55025">
        <ele>859.079529</ele>
        <time>2009-07-26T10:36:11Z</time>
      </trkpt>
      <trkpt lat="46.00825" lon="4.54982">
        <ele>854.216553</ele>
        <time>2009-07-26T10:36:23Z</time>
      </trkpt>
      <trkpt lat="46.00776" lon="4.54922">
        <ele>854.766907</ele>
        <time>2009-07-26T10:36:37Z</time>
      </trkpt>
      <trkpt lat="46.00636" lon="4.54823">
        <ele>862.081909</ele>
        <time>2009-07-26T10:37:56Z</time>
      </trkpt>
      <trkpt lat="46.00624" lon="4.54828">
        <ele>861.321777</ele>
        <time>2009-07-26T10:45:02Z</time>
      </trkpt>
      <trkpt lat="46.00594" lon="4.54817">
        <ele>861.082886</ele>
        <time>2009-07-26T10:45:15Z</time>
      </trkpt>
      <trkpt lat="46.00546" lon="4.54813">
        <ele>860.213806</ele>
        <time>2009-07-26T10:45:22Z</time>
      </trkpt>
      <trkpt lat="46.00506" lon="4.54817">
        <ele>857.988708</ele>
        <time>2009-07-26T10:45:27Z</time>
      </trkpt>
      <trkpt lat="46.00437" lon="4.54847">
        <ele>851.03772</ele>
        <time>2009-07-26T10:45:37Z</time>
      </trkpt>
      <trkpt lat="46.00358" lon="4.54935">
        <ele>849.783508</ele>
        <time>2009-07-26T10:45:55Z</time>
      </trkpt>
      <trkpt lat="46.00323" lon="4.54963">
        <ele>850.698914</ele>
        <time>2009-07-26T10:46:03Z</time>
      </trkpt>
      <trkpt lat="46.00293" lon="4.5501">
        <ele>851.209106</ele>
        <time>2009-07-26T10:46:16Z</time>
      </trkpt>
      <trkpt lat="46.00259" lon="4.55098">
        <ele>855.341187</ele>
        <time>2009-07-26T10:47:27Z</time>
      </trkpt>
      <trkpt lat="46.00237" lon="4.55098">
        <ele>851.651123</ele>
        <time>2009-07-26T10:47:40Z</time>
      </trkpt>
      <trkpt lat="46.00231" lon="4.55079">
        <ele>848.826294</ele>
        <time>2009-07-26T10:47:49Z</time>
      </trkpt>
      <trkpt lat="46.00224" lon="4.55072">
        <ele>846.927307</ele>
        <time>2009-07-26T10:47:58Z</time>
      </trkpt>
      <trkpt lat="46.00212" lon="4.55087">
        <ele>842.796997</ele>
        <time>2009-07-26T10:48:03Z</time>
      </trkpt>
      <trkpt lat="46.00141" lon="4.55246">
        <ele>832.122253</ele>
        <time>2009-07-26T10:48:31Z</time>
      </trkpt>
      <trkpt lat="46.00074" lon="4.55411">
        <ele>821.474487</ele>
        <time>2009-07-26T10:48:57Z</time>
      </trkpt>
      <trkpt lat="46.00027" lon="4.55518">
        <ele>809.582825</ele>
        <time>2009-07-26T10:49:18Z</time>
      </trkpt>
      <trkpt lat="45.99991" lon="4.55587">
        <ele>796.357361</ele>
        <time>2009-07-26T10:49:32Z</time>
      </trkpt>
      <trkpt lat="45.99963" lon="4.55613">
        <ele>790.325562</ele>
        <time>2009-07-26T10:49:38Z</time>
      </trkpt>
      <trkpt lat="45.99913" lon="4.556">
        <ele>786.363464</ele>
        <time>2009-07-26T10:52:13Z</time>
      </trkpt>
      <trkpt lat="45.99881" lon="4.55677">
        <ele>782.634949</ele>
        <time>2009-07-26T10:52:50Z</time>
      </trkpt>
      <trkpt lat="45.99712" lon="4.55969">
        <ele>778.656128</ele>
        <time>2009-07-26T10:53:57Z</time>
      </trkpt>
      <trkpt lat="45.99643" lon="4.56081">
        <ele>768.452698</ele>
        <time>2009-07-26T10:54:12Z</time>
      </trkpt>
      <trkpt lat="45.99609" lon="4.56126">
        <ele>764.700806</ele>
        <time>2009-07-26T10:54:18Z</time>
      </trkpt>
      <trkpt lat="45.99508" lon="4.56188">
        <ele>745.18457</ele>
        <time>2009-07-26T10:54:35Z</time>
      </trkpt>
      <trkpt lat="45.99512" lon="4.56201">
        <ele>748.754211</ele>
        <time>2009-07-26T10:55:49Z</time>
      </trkpt>
      <trkpt lat="45.99495" lon="4.56192">
        <ele>744.292725</ele>
        <time>2009-07-26T10:55:55Z</time>
      </trkpt>
      <trkpt lat="45.99467" lon="4.56209">
        <ele>747.579834</ele>
        <time>2009-07-26T10:56:00Z</time>
      </trkpt>
      <trkpt lat="45.99386" lon="4.56192">
        <ele>745.366516</ele>
        <time>2009-07-26T10:56:14Z</time>
      </trkpt>
      <trkpt lat="45.99302" lon="4.56197">
        <ele>744.805298</ele>
        <time>2009-07-26T10:56:28Z</time>
      </trkpt>
      <trkpt lat="45.99195" lon="4.56263">
        <ele>741.607117</ele>
        <time>2009-07-26T10:56:51Z</time>
      </trkpt>
      <trkpt lat="45.99042" lon="4.56357">
        <ele>719.601868</ele>
        <time>2009-07-26T10:57:30Z</time>
      </trkpt>
      <trkpt lat="45.98956" lon="4.56413">
        <ele>708.881897</ele>
        <time>2009-07-26T10:57:49Z</time>
      </trkpt>
      <trkpt lat="45.98922" lon="4.56454">
        <ele>709.387207</ele>
        <time>2009-07-26T10:57:55Z</time>
      </trkpt>
      <trkpt lat="45.98883" lon="4.56542">
        <ele>710.165283</ele>
        <time>2009-07-26T10:58:05Z</time>
      </trkpt>
      <trkpt lat="45.98836" lon="4.56418">
        <ele>702.204468</ele>
        <time>2009-07-26T11:08:43Z</time>
      </trkpt>
      <trkpt lat="45.98935" lon="4.56332">
        <ele>690.279358</ele>
        <time>2009-07-26T11:09:02Z</time>
      </trkpt>
      <trkpt lat="45.99057" lon="4.56109">
        <ele>674.445129</ele>
        <time>2009-07-26T11:09:29Z</time>
      </trkpt>
      <trkpt lat="45.98913" lon="4.56147">
        <ele>648.651001</ele>
        <time>2009-07-26T11:09:55Z</time>
      </trkpt>
      <trkpt lat="45.98881" lon="4.56173">
        <ele>650.59491</ele>
        <time>2009-07-26T11:10:01Z</time>
      </trkpt>
      <trkpt lat="45.98855" lon="4.56149">
        <ele>643.746826</ele>
        <time>2009-07-26T11:10:12Z</time>
      </trkpt>
      <trkpt lat="45.98864" lon="4.56139">
        <ele>641.027161</ele>
        <time>2009-07-26T11:10:34Z</time>
      </trkpt>
      <trkpt lat="45.9881" lon="4.56064">
        <ele>631.242615</ele>
        <time>2009-07-26T11:15:01Z</time>
      </trkpt>
      <trkpt lat="45.98742" lon="4.5598">
        <ele>627.912109</ele>
        <time>2009-07-26T11:15:14Z</time>
      </trkpt>
      <trkpt lat="45.98684" lon="4.55928">
        <ele>625.060547</ele>
        <time>2009-07-26T11:15:23Z</time>
      </trkpt>
      <trkpt lat="45.98628" lon="4.5592">
        <ele>623.399841</ele>
        <time>2009-07-26T11:15:30Z</time>
      </trkpt>
      <trkpt lat="45.98583" lon="4.55948">
        <ele>617.020264</ele>
        <time>2009-07-26T11:15:37Z</time>
      </trkpt>
      <trkpt lat="45.98534" lon="4.56008">
        <ele>605.28656</ele>
        <time>2009-07-26T11:15:49Z</time>
      </trkpt>
      <trkpt lat="45.98514" lon="4.56025">
        <ele>606.978333</ele>
        <time>2009-07-26T11:15:54Z</time>
      </trkpt>
      <trkpt lat="45.98396" lon="4.55939">
        <ele>592.457703</ele>
        <time>2009-07-26T11:17:07Z</time>
      </trkpt>
      <trkpt lat="45.98386" lon="4.55945">
        <ele>590.430603</ele>
        <time>2009-07-26T11:17:10Z</time>
      </trkpt>
      <trkpt lat="45.98347" lon="4.55995">
        <ele>592.352722</ele>
        <time>2009-07-26T11:17:18Z</time>
      </trkpt>
      <trkpt lat="45.98321" lon="4.55988">
        <ele>587.023438</ele>
        <time>2009-07-26T11:17:23Z</time>
      </trkpt>
      <trkpt lat="45.98158" lon="4.55939">
        <ele>595.073181</ele>
        <time>2009-07-26T11:17:53Z</time>
      </trkpt>
      <trkpt lat="45.98098" lon="4.55967">
        <ele>595.575012</ele>
        <time>2009-07-26T11:18:07Z</time>
      </trkpt>
      <trkpt lat="45.98042" lon="4.56025">
        <ele>589.225708</ele>
        <time>2009-07-26T11:18:18Z</time>
      </trkpt>
      <trkpt lat="45.98036" lon="4.56059">
        <ele>587.717651</ele>
        <time>2009-07-26T11:18:22Z</time>
      </trkpt>
      <trkpt lat="45.98036" lon="4.56145">
        <ele>589.370544</ele>
        <time>2009-07-26T11:18:32Z</time>
      </trkpt>
      <trkpt lat="45.97984" lon="4.56201">
        <ele>583.726868</ele>
        <time>2009-07-26T11:18:40Z</time>
      </trkpt>
      <trkpt lat="45.9792" lon="4.56224">
        <ele>582.417542</ele>
        <time>2009-07-26T11:18:49Z</time>
      </trkpt>
      <trkpt lat="45.97853" lon="4.563">
        <ele>587.962036</ele>
        <time>2009-07-26T11:19:04Z</time>
      </trkpt>
      <trkpt lat="45.97836" lon="4.56317">
        <ele>589.261841</ele>
        <time>2009-07-26T11:19:08Z</time>
      </trkpt>
      <trkpt lat="45.97808" lon="4.5633">
        <ele>587.45575</ele>
        <time>2009-07-26T11:19:14Z</time>
      </trkpt>
      <trkpt lat="45.97761" lon="4.56338">
        <ele>585.673767</ele>
        <time>2009-07-26T11:19:23Z</time>
      </trkpt>
      <trkpt lat="45.97667" lon="4.5628">
        <ele>583.079041</ele>
        <time>2009-07-26T11:19:39Z</time>
      </trkpt>
      <trkpt lat="45.97637" lon="4.56265">
        <ele>581.688843</ele>
        <time>2009-07-26T11:19:44Z</time>
      </trkpt>
      <trkpt lat="45.97459" lon="4.5634">
        <ele>580.247681</ele>
        <time>2009-07-26T11:20:23Z</time>
      </trkpt>
      <trkpt lat="45.97401" lon="4.56345">
        <ele>580.121887</ele>
        <time>2009-07-26T11:20:39Z</time>
      </trkpt>
      <trkpt lat="45.97343" lon="4.5636">
        <ele>574.445313</ele>
        <time>2009-07-26T11:20:51Z</time>
      </trkpt>
      <trkpt lat="45.97278" lon="4.56396">
        <ele>566.753845</ele>
        <time>2009-07-26T11:21:00Z</time>
      </trkpt>
      <trkpt lat="45.97145" lon="4.56452">
        <ele>561.145813</ele>
        <time>2009-07-26T11:21:14Z</time>
      </trkpt>
      <trkpt lat="45.97021" lon="4.56469">
        <ele>559.727966</ele>
        <time>2009-07-26T11:21:29Z</time>
      </trkpt>
      <trkpt lat="45.96997" lon="4.56512">
        <ele>560.031921</ele>
        <time>2009-07-26T11:21:37Z</time>
      </trkpt>
      <trkpt lat="45.97128" lon="4.56712">
        <ele>548.857422</ele>
        <time>2009-07-26T11:22:04Z</time>
      </trkpt>
      <trkpt lat="45.97111" lon="4.56767">
        <ele>548.670654</ele>
        <time>2009-07-26T11:22:12Z</time>
      </trkpt>
      <trkpt lat="45.97029" lon="4.56754">
        <ele>540.625366</ele>
        <time>2009-07-26T11:22:24Z</time>
      </trkpt>
      <trkpt lat="45.96978" lon="4.56789">
        <ele>540.702942</ele>
        <time>2009-07-26T11:22:33Z</time>
      </trkpt>
      <trkpt lat="45.96916" lon="4.5687">
        <ele>540.635315</ele>
        <time>2009-07-26T11:22:47Z</time>
      </trkpt>
      <trkpt lat="45.96828" lon="4.57021">
        <ele>537.868896</ele>
        <time>2009-07-26T11:23:10Z</time>
      </trkpt>
      <trkpt lat="45.96793" lon="4.5704">
        <ele>535.665894</ele>
        <time>2009-07-26T11:23:16Z</time>
      </trkpt>
      <trkpt lat="45.96755" lon="4.57033">
        <ele>533.406128</ele>
        <time>2009-07-26T11:23:22Z</time>
      </trkpt>
      <trkpt lat="45.9671" lon="4.57014">
        <ele>528.934753</ele>
        <time>2009-07-26T11:23:34Z</time>
      </trkpt>
      <trkpt lat="45.9668" lon="4.57091">
        <ele>522.450073</ele>
        <time>2009-07-26T11:23:45Z</time>
      </trkpt>
      <trkpt lat="45.96643" lon="4.57115">
        <ele>516.614746</ele>
        <time>2009-07-26T11:23:51Z</time>
      </trkpt>
      <trkpt lat="45.96598" lon="4.57175">
        <ele>506.177124</ele>
        <time>2009-07-26T11:24:00Z</time>
      </trkpt>
      <trkpt lat="45.9657" lon="4.57222">
        <ele>496.642853</ele>
        <time>2009-07-26T11:24:07Z</time>
      </trkpt>
      <trkpt lat="45.96551" lon="4.57259">
        <ele>489.913086</ele>
        <time>2009-07-26T11:24:11Z</time>
      </trkpt>
      <trkpt lat="45.96504" lon="4.57306">
        <ele>481.940918</ele>
        <time>2009-07-26T11:24:18Z</time>
      </trkpt>
      <trkpt lat="45.96354" lon="4.57387">
        <ele>461.836121</ele>
        <time>2009-07-26T11:24:37Z</time>
      </trkpt>
      <trkpt lat="45.96255" lon="4.57387">
        <ele>436.629242</ele>
        <time>2009-07-26T11:24:55Z</time>
      </trkpt>
      <trkpt lat="45.96244" lon="4.57413">
        <ele>433.094757</ele>
        <time>2009-07-26T11:24:58Z</time>
      </trkpt>
      <trkpt lat="45.96182" lon="4.57591">
        <ele>409.094757</ele>
        <time>2009-07-26T11:25:16Z</time>
      </trkpt>
      <trkpt lat="45.9616" lon="4.57589">
        <ele>406.565186</ele>
        <time>2009-07-26T11:25:24Z</time>
      </trkpt>
      <trkpt lat="45.96169" lon="4.57529">
        <ele>411.776245</ele>
        <time>2009-07-26T11:25:31Z</time>
      </trkpt>
      <trkpt lat="45.96167" lon="4.5749">
        <ele>412.670441</ele>
        <time>2009-07-26T11:25:39Z</time>
      </trkpt>
      <trkpt lat="45.96165" lon="4.57512">
        <ele>411.076569</ele>
        <time>2009-07-26T11:25:42Z</time>
      </trkpt>
      <trkpt lat="45.96152" lon="4.57548">
        <ele>406.43631</ele>
        <time>2009-07-26T11:25:46Z</time>
      </trkpt>
      <trkpt lat="45.96128" lon="4.57634">
        <ele>399.267456</ele>
        <time>2009-07-26T11:25:52Z</time>
      </trkpt>
      <trkpt lat="45.96124" lon="4.57718">
        <ele>388.463867</ele>
        <time>2009-07-26T11:25:57Z</time>
      </trkpt>
      <trkpt lat="45.96096" lon="4.5778">
        <ele>390.431793</ele>
        <time>2009-07-26T11:26:02Z</time>
      </trkpt>
      <trkpt lat="45.95974" lon="4.57853">
        <ele>397.354553</ele>
        <time>2009-07-26T11:26:26Z</time>
      </trkpt>
      <trkpt lat="45.95924" lon="4.57802">
        <ele>395.703247</ele>
        <time>2009-07-26T11:26:40Z</time>
      </trkpt>
      <trkpt lat="45.95892" lon="4.57799">
        <ele>397.157104</ele>
        <time>2009-07-26T11:26:47Z</time>
      </trkpt>
      <trkpt lat="45.95839" lon="4.57838">
        <ele>397.508453</ele>
        <time>2009-07-26T11:26:56Z</time>
      </trkpt>
      <trkpt lat="45.95815" lon="4.57823">
        <ele>395.873444</ele>
        <time>2009-07-26T11:27:03Z</time>
      </trkpt>
      <trkpt lat="45.95858" lon="4.57724">
        <ele>383.665955</ele>
        <time>2009-07-26T11:27:14Z</time>
      </trkpt>
      <trkpt lat="45.95869" lon="4.57643">
        <ele>376.788086</ele>
        <time>2009-07-26T11:27:22Z</time>
      </trkpt>
      <trkpt lat="45.95824" lon="4.57589">
        <ele>376.20636</ele>
        <time>2009-07-26T11:27:28Z</time>
      </trkpt>
      <trkpt lat="45.95774" lon="4.57499">
        <ele>372.079437</ele>
        <time>2009-07-26T11:27:38Z</time>
      </trkpt>
      <trkpt lat="45.95671" lon="4.57312">
        <ele>374.593842</ele>
        <time>2009-07-26T11:27:58Z</time>
      </trkpt>
      <trkpt lat="45.95551" lon="4.5733">
        <ele>363.976837</ele>
        <time>2009-07-26T11:28:05Z</time>
      </trkpt>
      <trkpt lat="45.95482" lon="4.57312">
        <ele>364.602234</ele>
        <time>2009-07-26T11:28:20Z</time>
      </trkpt>
      <trkpt lat="45.95435" lon="4.57257">
        <ele>366.128815</ele>
        <time>2009-07-26T11:28:31Z</time>
      </trkpt>
      <trkpt lat="45.95377" lon="4.57136">
        <ele>359.913574</ele>
        <time>2009-07-26T11:28:48Z</time>
      </trkpt>
      <trkpt lat="45.95358" lon="4.57117">
        <ele>360.971741</ele>
        <time>2009-07-26T11:28:52Z</time>
      </trkpt>
      <trkpt lat="45.95283" lon="4.57078">
        <ele>367.153381</ele>
        <time>2009-07-26T11:29:10Z</time>
      </trkpt>
      <trkpt lat="45.95255" lon="4.57044">
        <ele>368.805786</ele>
        <time>2009-07-26T11:29:22Z</time>
      </trkpt>
      <trkpt lat="45.95225" lon="4.56954">
        <ele>375.632629</ele>
        <time>2009-07-26T11:29:45Z</time>
      </trkpt>
      <trkpt lat="45.95165" lon="4.56819">
        <ele>386.553131</ele>
        <time>2009-07-26T11:30:25Z</time>
      </trkpt>
      <trkpt lat="45.9512" lon="4.56763">
        <ele>393.796478</ele>
        <time>2009-07-26T11:30:52Z</time>
      </trkpt>
      <trkpt lat="45.95094" lon="4.56746">
        <ele>396.398834</ele>
        <time>2009-07-26T11:31:04Z</time>
      </trkpt>
      <trkpt lat="45.9498" lon="4.56746">
        <ele>405.108856</ele>
        <time>2009-07-26T11:31:45Z</time>
      </trkpt>
      <trkpt lat="45.94937" lon="4.56714">
        <ele>409.205139</ele>
        <time>2009-07-26T11:32:07Z</time>
      </trkpt>
      <trkpt lat="45.94907" lon="4.56671">
        <ele>411.242767</ele>
        <time>2009-07-26T11:32:26Z</time>
      </trkpt>
      <trkpt lat="45.94888" lon="4.56639">
        <ele>414.702148</ele>
        <time>2009-07-26T11:32:41Z</time>
      </trkpt>
      <trkpt lat="45.94867" lon="4.56647">
        <ele>420.344727</ele>
        <time>2009-07-26T11:32:54Z</time>
      </trkpt>
      <trkpt lat="45.94847" lon="4.56694">
        <ele>425.552765</ele>
        <time>2009-07-26T11:33:11Z</time>
      </trkpt>
      <trkpt lat="45.94832" lon="4.56716">
        <ele>428.07843</ele>
        <time>2009-07-26T11:33:21Z</time>
      </trkpt>
      <trkpt lat="45.94753" lon="4.56707">
        <ele>420.810699</ele>
        <time>2009-07-26T11:33:38Z</time>
      </trkpt>
      <trkpt lat="45.94688" lon="4.56759">
        <ele>414.885681</ele>
        <time>2009-07-26T11:33:50Z</time>
      </trkpt>
      <trkpt lat="45.94573" lon="4.56866">
        <ele>400.399017</ele>
        <time>2009-07-26T11:34:08Z</time>
      </trkpt>
      <trkpt lat="45.94433" lon="4.56802">
        <ele>396.082672</ele>
        <time>2009-07-26T11:34:28Z</time>
      </trkpt>
      <trkpt lat="45.94274" lon="4.56834">
        <ele>400.346039</ele>
        <time>2009-07-26T11:34:59Z</time>
      </trkpt>
      <trkpt lat="45.94206" lon="4.56872">
        <ele>402.159393</ele>
        <time>2009-07-26T11:35:15Z</time>
      </trkpt>
      <trkpt lat="45.94133" lon="4.56965">
        <ele>400.226318</ele>
        <time>2009-07-26T11:35:35Z</time>
      </trkpt>
      <trkpt lat="45.94103" lon="4.56995">
        <ele>396.4375</ele>
        <time>2009-07-26T11:35:41Z</time>
      </trkpt>
      <trkpt lat="45.94025" lon="4.57025">
        <ele>390.688354</ele>
        <time>2009-07-26T11:35:51Z</time>
      </trkpt>
      <trkpt lat="45.94" lon="4.57025">
        <ele>387.965088</ele>
        <time>2009-07-26T11:35:54Z</time>
      </trkpt>
      <trkpt lat="45.9395" lon="4.57083">
        <ele>379.339508</ele>
        <time>2009-07-26T11:36:03Z</time>
      </trkpt>
      <trkpt lat="45.93918" lon="4.57091">
        <ele>374.625732</ele>
        <time>2009-07-26T11:36:07Z</time>
      </trkpt>
      <trkpt lat="45.93796" lon="4.57096">
        <ele>362.724579</ele>
        <time>2009-07-26T11:36:18Z</time>
      </trkpt>
      <trkpt lat="45.93631" lon="4.57119">
        <ele>346.216888</ele>
        <time>2009-07-26T11:36:31Z</time>
      </trkpt>
      <trkpt lat="45.93607" lon="4.5713">
        <ele>344.513947</ele>
        <time>2009-07-26T11:36:33Z</time>
      </trkpt>
      <trkpt lat="45.93575" lon="4.57151">
        <ele>341.989716</ele>
        <time>2009-07-26T11:36:37Z</time>
      </trkpt>
      <trkpt lat="45.93566" lon="4.57186">
        <ele>340.100433</ele>
        <time>2009-07-26T11:36:42Z</time>
      </trkpt>
      <trkpt lat="45.93637" lon="4.57293">
        <ele>339.364258</ele>
        <time>2009-07-26T11:36:58Z</time>
      </trkpt>
      <trkpt lat="45.9362" lon="4.57362">
        <ele>344.662598</ele>
        <time>2009-07-26T11:37:08Z</time>
      </trkpt>
      <trkpt lat="45.93601" lon="4.57377">
        <ele>347.404816</ele>
        <time>2009-07-26T11:37:12Z</time>
      </trkpt>
      <trkpt lat="45.92976" lon="4.57467">
        <ele>353.536896</ele>
        <time>2009-07-26T11:38:59Z</time>
      </trkpt>
      <trkpt lat="45.92895" lon="4.57497">
        <ele>358.0896</ele>
        <time>2009-07-26T11:39:15Z</time>
      </trkpt>
      <trkpt lat="45.92802" lon="4.57572">
        <ele>364.858246</ele>
        <time>2009-07-26T11:39:41Z</time>
      </trkpt>
      <trkpt lat="45.92699" lon="4.5769">
        <ele>358.93869</ele>
        <time>2009-07-26T11:40:04Z</time>
      </trkpt>
      <trkpt lat="45.92637" lon="4.57784">
        <ele>352.792267</ele>
        <time>2009-07-26T11:40:13Z</time>
      </trkpt>
      <trkpt lat="45.92485" lon="4.57851">
        <ele>345.229004</ele>
        <time>2009-07-26T11:40:30Z</time>
      </trkpt>
      <trkpt lat="45.92433" lon="4.5789">
        <ele>341.061951</ele>
        <time>2009-07-26T11:40:38Z</time>
      </trkpt>
      <trkpt lat="45.92414" lon="4.58014">
        <ele>339.514557</ele>
        <time>2009-07-26T11:40:52Z</time>
      </trkpt>
      <trkpt lat="45.9227" lon="4.58332">
        <ele>355.019806</ele>
        <time>2009-07-26T11:41:48Z</time>
      </trkpt>
      <trkpt lat="45.92214" lon="4.58424">
        <ele>355.776886</ele>
        <time>2009-07-26T11:42:10Z</time>
      </trkpt>
      <trkpt lat="45.92234" lon="4.58441">
        <ele>357.594971</ele>
        <time>2009-07-26T11:42:27Z</time>
      </trkpt>
      <trkpt lat="45.92075" lon="4.58572">
        <ele>350.922638</ele>
        <time>2009-07-26T11:43:04Z</time>
      </trkpt>
      <trkpt lat="45.91991" lon="4.58538">
        <ele>353.616119</ele>
        <time>2009-07-26T11:43:26Z</time>
      </trkpt>
      <trkpt lat="45.9194" lon="4.58548">
        <ele>354.57605</ele>
        <time>2009-07-26T11:43:35Z</time>
      </trkpt>
      <trkpt lat="45.91871" lon="4.58516">
        <ele>353.625793</ele>
        <time>2009-07-26T11:43:49Z</time>
      </trkpt>
    </trkseg>
  </trk>
</gpx>